createdAt,value
2022-11-05T00:02:19.741Z,13.77
2022-11-05T00:05:39.511Z,14.33
2022-11-05T00:09:00.180Z,13.95
2022-11-05T00:12:29.474Z,14.73
2022-11-05T00:15:49.996Z,14.07
2022-11-05T00:19:06.856Z,15.45
2022-11-05T00:22:26.972Z,16.40
2022-11-05T00:25:29.918Z,15.48
2022-11-05T00:28:32.817Z,19.03
2022-11-05T00:31:34.344Z,19.02
2022-11-05T00:34:35.858Z,17.15
2022-11-05T00:37:37.457Z,18.17
2022-11-05T00:40:39.205Z,17.55
2022-11-05T00:43:59.446Z,16.77
2022-11-05T00:47:19.593Z,14.90
2022-11-05T00:50:22.355Z,14.32
2022-11-05T00:53:23.848Z,16.30
2022-11-05T00:56:25.446Z,17.42
2022-11-05T00:59:26.992Z,16.33
2022-11-05T01:02:28.560Z,14.73
2022-11-05T01:05:31.687Z,14.60
2022-11-05T01:08:33.579Z,13.80
2022-11-05T01:11:36.905Z,16.92
2022-11-05T01:14:38.528Z,12.85
2022-11-05T01:17:41.169Z,13.90
2022-11-05T01:20:42.796Z,13.25
2022-11-05T01:23:44.341Z,13.32
2022-11-05T01:26:45.803Z,15.13
2022-11-05T01:29:47.325Z,13.90
2022-11-05T01:32:49.346Z,15.00
2022-11-05T01:35:51.886Z,14.80
2022-11-05T01:38:53.621Z,17.20
2022-11-05T01:41:55.118Z,13.43
2022-11-05T01:45:04.228Z,13.98
2022-11-05T01:48:15.627Z,14.48
2022-11-05T01:51:21.922Z,16.30
2022-11-05T01:54:27.669Z,16.70
2022-11-05T01:57:30.975Z,15.10
2022-11-05T02:00:33.637Z,14.00
2022-11-05T02:03:35.942Z,14.07
2022-11-05T02:06:46.206Z,13.90
2022-11-05T02:10:15.615Z,13.07
2022-11-05T02:13:17.188Z,12.98
2022-11-05T02:16:27.324Z,15.88
2022-11-05T02:19:55.706Z,14.05
2022-11-05T02:23:03.290Z,12.35
2022-11-05T02:26:07.766Z,14.75
2022-11-05T02:29:40.129Z,14.70
2022-11-05T02:32:53.266Z,13.53
2022-11-05T02:36:10.180Z,14.48
2022-11-05T02:39:11.663Z,12.60
2022-11-05T02:42:28.410Z,13.07
2022-11-05T02:45:38.270Z,11.35
2022-11-05T02:48:45.928Z,13.23
2022-11-05T02:51:57.116Z,12.23
2022-11-05T02:55:12.026Z,11.85
2022-11-05T02:58:13.547Z,11.05
2022-11-05T03:01:15.297Z,10.13
2022-11-05T03:04:20.654Z,11.67
2022-11-05T03:07:31.031Z,10.90
2022-11-05T03:10:48.408Z,10.18
2022-11-05T03:14:08.564Z,10.00
2022-11-05T03:17:29.326Z,11.18
2022-11-05T03:21:05.224Z,11.52
2022-11-05T03:24:30.963Z,10.90
2022-11-05T03:27:37.748Z,11.65
2022-11-05T03:30:42.355Z,13.52
2022-11-05T03:33:44.946Z,9.43
2022-11-05T03:36:51.460Z,9.77
2022-11-05T03:39:59.687Z,8.55
2022-11-05T03:43:03.752Z,9.63
2022-11-05T03:46:10.803Z,9.13
2022-11-05T03:49:19.276Z,11.70
2022-11-05T03:52:26.097Z,9.13
2022-11-05T03:55:35.420Z,10.75
2022-11-05T03:58:41.729Z,9.95
2022-11-05T04:01:44.069Z,11.57
2022-11-05T04:04:46.117Z,10.20
2022-11-05T04:08:10.041Z,10.03
2022-11-05T04:11:34.239Z,11.73
2022-11-05T04:14:35.753Z,10.75
2022-11-05T04:17:37.263Z,11.30
2022-11-05T04:20:57.474Z,12.52
2022-11-05T04:24:11.000Z,10.10
2022-11-05T04:27:12.509Z,10.30
2022-11-05T04:30:19.505Z,11.45
2022-11-05T04:33:21.116Z,10.52
2022-11-05T04:36:22.648Z,11.32
2022-11-05T04:39:24.161Z,10.80
2022-11-05T04:42:25.691Z,11.05
2022-11-05T04:45:29.690Z,12.10
2022-11-05T04:48:31.247Z,10.57
2022-11-05T04:51:32.842Z,12.18
2022-11-05T04:54:34.373Z,10.70
2022-11-05T04:57:36.397Z,10.52
2022-11-05T05:00:38.093Z,8.80
2022-11-05T05:03:39.755Z,9.52
2022-11-05T05:06:41.269Z,9.80
2022-11-05T05:09:42.800Z,10.30
2022-11-05T05:12:44.354Z,10.02
2022-11-05T05:15:45.943Z,8.60
2022-11-05T05:18:48.771Z,9.73
2022-11-05T05:21:50.318Z,11.38
2022-11-05T05:24:53.039Z,9.38
2022-11-05T05:27:58.097Z,9.18
2022-11-05T05:31:00.712Z,8.35
2022-11-05T05:34:03.247Z,9.40
2022-11-05T05:37:04.881Z,9.75
2022-11-05T05:40:06.985Z,10.10
2022-11-05T05:43:08.763Z,10.38
2022-11-05T05:46:13.516Z,9.35
2022-11-05T05:49:15.038Z,9.87
2022-11-05T05:52:16.567Z,11.25
2022-11-05T05:55:18.066Z,9.68
2022-11-05T05:58:19.573Z,10.35
2022-11-05T06:01:21.717Z,10.93
2022-11-05T06:04:23.316Z,10.95
2022-11-05T06:07:24.815Z,10.48
2022-11-05T06:10:26.369Z,10.00
2022-11-05T06:13:28.395Z,10.60
2022-11-05T06:16:35.739Z,10.70
2022-11-05T06:19:37.235Z,9.97
2022-11-05T06:22:38.922Z,10.63
2022-11-05T06:25:41.531Z,10.35
2022-11-05T06:28:43.776Z,10.20
2022-11-05T06:31:45.313Z,9.80
2022-11-05T06:34:46.823Z,11.27
2022-11-05T06:37:48.353Z,11.02
2022-11-05T06:40:49.890Z,10.00
2022-11-05T06:43:51.680Z,10.52
2022-11-05T06:46:53.234Z,10.43
2022-11-05T06:49:56.173Z,10.63
2022-11-05T06:52:59.749Z,13.98
2022-11-05T06:56:05.913Z,10.60
2022-11-05T06:59:08.549Z,11.00
2022-11-05T07:02:13.235Z,13.05
2022-11-05T07:05:16.391Z,12.50
2022-11-05T07:08:17.945Z,11.07
2022-11-05T07:11:19.688Z,10.77
2022-11-05T07:14:21.229Z,12.32
2022-11-05T07:17:23.178Z,12.10
2022-11-05T07:20:28.216Z,12.27
2022-11-05T07:23:32.328Z,15.30
2022-11-05T07:26:34.786Z,12.52
2022-11-05T07:29:36.434Z,10.90
2022-11-05T07:32:39.949Z,11.65
2022-11-05T07:35:41.499Z,36.63
2022-11-05T07:38:43.241Z,21.45
2022-11-05T07:41:44.736Z,19.70
2022-11-05T07:44:46.298Z,15.57
2022-11-05T07:47:51.852Z,15.48
2022-11-05T07:50:53.428Z,14.13
2022-11-05T07:53:54.971Z,12.98
2022-11-05T07:56:56.547Z,13.20
2022-11-05T07:59:58.119Z,14.77
2022-11-05T08:03:08.265Z,16.77
2022-11-05T08:06:10.401Z,14.82
2022-11-05T08:09:12.002Z,16.48
2022-11-05T08:12:13.581Z,12.77
2022-11-05T08:15:15.201Z,14.52
2022-11-05T08:18:17.743Z,12.98
2022-11-05T08:21:19.265Z,17.50
2022-11-05T08:24:20.872Z,15.50
2022-11-05T08:27:22.409Z,25.38
2022-11-05T08:30:24.600Z,25.85
2022-11-05T08:33:26.255Z,20.08
2022-11-05T08:36:27.759Z,16.02
2022-11-05T08:39:29.367Z,13.60
2022-11-05T08:42:30.856Z,16.40
2022-11-05T08:45:33.636Z,14.40
2022-11-05T08:48:35.214Z,16.30
2022-11-05T08:51:36.813Z,13.63
2022-11-05T08:54:38.501Z,12.70
2022-11-05T08:57:40.107Z,11.52
2022-11-05T09:00:42.472Z,11.70
2022-11-05T09:03:44.148Z,12.27
2022-11-05T09:06:45.732Z,11.60
2022-11-05T09:09:47.279Z,12.10
2022-11-05T09:12:48.824Z,11.37
2022-11-05T09:15:51.197Z,10.68
2022-11-05T09:18:53.009Z,11.00
2022-11-05T09:21:54.751Z,10.67
2022-11-05T09:24:56.267Z,11.40
2022-11-05T09:28:16.416Z,12.48
2022-11-05T09:31:18.548Z,11.73
2022-11-05T09:34:20.079Z,10.65
2022-11-05T09:37:21.968Z,24.10
2022-11-05T09:40:25.802Z,36.13
2022-11-05T09:43:51.670Z,21.10
2022-11-05T09:47:01.600Z,17.88
2022-11-05T09:50:07.875Z,24.98
2022-11-05T09:53:14.352Z,17.20
2022-11-05T09:56:35.008Z,13.50
2022-11-05T09:59:44.892Z,18.05
2022-11-05T10:02:51.442Z,13.05
2022-11-05T10:05:57.108Z,19.58
2022-11-05T10:09:23.859Z,15.57
2022-11-05T10:12:45.640Z,12.20
2022-11-05T10:15:57.602Z,14.03
2022-11-05T10:19:07.283Z,12.63
2022-11-05T10:22:16.190Z,14.60
2022-11-05T10:25:20.162Z,13.17
2022-11-05T10:28:29.654Z,10.65
2022-11-05T10:31:35.964Z,13.98
2022-11-05T10:34:39.474Z,14.52
2022-11-05T10:37:41.373Z,11.82
2022-11-05T10:41:20.617Z,11.02
2022-11-05T10:44:40.180Z,10.95
2022-11-05T10:48:01.771Z,10.70
2022-11-05T10:51:03.463Z,15.77
2022-11-05T10:54:13.911Z,8.40
2022-11-05T10:57:30.575Z,7.70
2022-11-05T11:00:32.253Z,6.78
2022-11-05T11:03:39.772Z,8.60
2022-11-05T11:06:48.460Z,6.82
2022-11-05T11:09:51.098Z,6.88
2022-11-05T11:12:53.457Z,6.82
2022-11-05T11:16:12.923Z,6.72
2022-11-05T11:19:20.374Z,6.73
2022-11-05T11:22:22.101Z,7.15
2022-11-05T11:25:25.654Z,6.20
2022-11-05T11:28:33.603Z,5.60
2022-11-05T11:31:39.399Z,5.68
2022-11-05T11:34:42.680Z,6.70
2022-11-05T11:37:45.758Z,5.90
2022-11-05T11:40:47.284Z,7.07
2022-11-05T11:43:49.072Z,6.68
2022-11-05T11:46:55.060Z,6.65
2022-11-05T11:49:59.126Z,6.20
2022-11-05T11:53:17.146Z,7.32
2022-11-05T11:56:21.280Z,6.38
2022-11-05T11:59:40.572Z,6.60
2022-11-05T12:02:54.811Z,6.28
2022-11-05T12:06:31.107Z,5.65
2022-11-05T12:09:56.073Z,5.85
2022-11-05T12:13:19.177Z,6.82
2022-11-05T12:16:42.131Z,6.68
2022-11-05T12:20:13.784Z,5.65
2022-11-05T12:23:30.378Z,5.43
2022-11-05T12:26:50.793Z,6.18
2022-11-05T12:29:54.939Z,6.50
2022-11-05T12:33:08.858Z,6.53
2022-11-05T12:36:19.085Z,6.45
2022-11-05T12:39:44.118Z,6.47
2022-11-05T12:42:48.759Z,7.53
2022-11-05T12:46:05.367Z,7.32
2022-11-05T12:49:09.844Z,8.63
2022-11-05T12:52:29.602Z,7.82
2022-11-05T12:55:42.784Z,9.00
2022-11-05T12:59:12.728Z,8.77
2022-11-05T13:02:33.350Z,12.00
2022-11-05T13:05:43.387Z,9.63
2022-11-05T13:08:54.405Z,9.23
2022-11-05T13:12:10.431Z,10.82
2022-11-05T13:15:44.112Z,9.32
2022-11-05T13:19:17.021Z,25.40
2022-11-05T13:22:40.223Z,27.42
2022-11-05T13:25:50.055Z,26.88
2022-11-05T13:29:02.676Z,15.07
2022-11-05T13:32:28.007Z,9.90
2022-11-05T13:35:40.570Z,19.10
2022-11-05T13:39:02.731Z,8.27
2022-11-05T13:42:10.401Z,43.08
2022-11-05T13:45:21.029Z,44.05
2022-11-05T13:48:53.609Z,22.90
2022-11-05T13:52:47.317Z,21.20
2022-11-05T13:55:54.641Z,14.85
2022-11-05T13:59:30.445Z,14.80
2022-11-05T14:02:51.104Z,14.37
2022-11-05T14:06:02.118Z,15.02
2022-11-05T14:09:08.807Z,13.05
2022-11-05T14:12:21.759Z,16.70
2022-11-05T14:15:28.753Z,15.45
2022-11-05T14:18:41.248Z,16.88
2022-11-05T14:21:53.196Z,12.60
2022-11-05T14:24:54.765Z,15.18
2022-11-05T14:27:58.296Z,17.17
2022-11-05T14:30:59.912Z,25.60
2022-11-05T14:34:10.217Z,18.23
2022-11-05T14:37:11.813Z,16.55
2022-11-05T14:40:26.147Z,14.25
2022-11-05T14:43:31.825Z,11.03
2022-11-05T14:46:48.007Z,12.38
2022-11-05T14:49:59.029Z,11.20
2022-11-05T14:53:10.375Z,11.07
2022-11-05T14:56:16.699Z,11.80
2022-11-05T14:59:24.233Z,11.20
2022-11-05T15:02:32.172Z,10.05
2022-11-05T15:05:40.003Z,9.97
2022-11-05T15:08:47.608Z,10.23
2022-11-05T15:12:00.297Z,10.30
2022-11-05T15:15:22.767Z,13.23
2022-11-05T15:18:33.275Z,14.55
2022-11-05T15:21:37.846Z,15.50
2022-11-05T15:24:42.231Z,12.68
2022-11-05T15:28:05.318Z,11.23
2022-11-05T15:31:12.997Z,11.60
2022-11-05T15:34:18.424Z,14.50
2022-11-05T15:37:24.151Z,18.00
2022-11-05T15:40:28.473Z,15.23
2022-11-05T15:43:30.255Z,15.23
2022-11-05T15:46:31.937Z,12.93
2022-11-05T15:49:33.808Z,13.90
2022-11-05T15:52:42.078Z,18.05
2022-11-05T15:55:53.046Z,20.10
2022-11-05T15:59:03.026Z,20.40
2022-11-05T16:02:23.818Z,16.45
2022-11-05T16:05:28.279Z,13.43
2022-11-05T16:08:31.485Z,13.10
2022-11-05T16:11:33.015Z,12.50
2022-11-05T16:14:35.359Z,13.93
2022-11-05T16:17:39.890Z,11.37
2022-11-05T16:20:41.392Z,13.18
2022-11-05T16:24:00.954Z,12.73
2022-11-05T16:27:05.326Z,12.00
2022-11-05T16:30:17.691Z,14.05
2022-11-05T16:33:19.284Z,13.50
2022-11-05T16:36:21.731Z,15.80
2022-11-05T16:39:24.238Z,15.03
2022-11-05T16:42:36.423Z,14.15
2022-11-05T16:45:41.255Z,14.02
2022-11-05T16:48:43.116Z,16.33
2022-11-05T16:51:44.862Z,12.93
2022-11-05T16:54:46.418Z,18.65
2022-11-05T16:57:52.255Z,21.17
2022-11-05T17:01:02.773Z,23.23
2022-11-05T17:04:04.397Z,23.27
2022-11-05T17:07:05.931Z,20.83
2022-11-05T17:10:07.788Z,22.00
2022-11-05T17:13:14.857Z,20.02
2022-11-05T17:16:17.885Z,20.15
2022-11-05T17:19:19.838Z,19.50
2022-11-05T17:22:21.334Z,21.27
2022-11-05T17:25:23.058Z,23.50
2022-11-05T17:28:24.606Z,23.85
2022-11-05T17:31:27.279Z,34.05
2022-11-05T17:34:28.812Z,27.80
2022-11-05T17:37:30.839Z,21.40
2022-11-05T17:40:34.421Z,20.97
2022-11-05T17:43:36.080Z,20.25
2022-11-05T17:46:37.602Z,20.02
2022-11-05T17:49:39.136Z,19.17
2022-11-05T17:52:40.738Z,20.75
2022-11-05T17:55:44.012Z,20.13
2022-11-05T17:58:45.653Z,20.63
2022-11-05T18:01:47.391Z,21.27
2022-11-05T18:04:49.072Z,20.67
2022-11-05T18:07:51.050Z,20.65
2022-11-05T18:10:53.144Z,20.30
2022-11-05T18:13:54.673Z,21.60
2022-11-05T18:17:00.048Z,26.52
2022-11-05T18:20:02.471Z,25.00
2022-11-05T18:23:04.272Z,24.30
2022-11-05T18:26:14.271Z,20.80
2022-11-05T18:29:15.988Z,23.92
2022-11-05T18:32:17.912Z,22.55
2022-11-05T18:35:20.479Z,21.65
2022-11-05T18:38:22.021Z,23.50
2022-11-05T18:41:24.139Z,21.43
2022-11-05T18:44:25.763Z,21.98
2022-11-05T18:47:27.339Z,23.98
2022-11-05T18:50:29.423Z,30.00
2022-11-05T18:53:30.972Z,34.58
2022-11-05T18:56:32.597Z,40.17
2022-11-05T18:59:38.204Z,38.60
2022-11-05T19:02:40.980Z,28.58
2022-11-05T19:05:42.654Z,25.92
2022-11-05T19:08:44.757Z,30.08
2022-11-05T19:11:46.356Z,30.70
2022-11-05T19:14:47.905Z,36.83
2022-11-05T19:17:49.473Z,32.75
2022-11-05T19:20:50.979Z,26.43
2022-11-05T19:23:53.484Z,34.20
2022-11-05T19:26:55.445Z,32.50
2022-11-05T19:29:57.041Z,31.83
2022-11-05T19:32:58.599Z,30.23
2022-11-05T19:36:03.820Z,32.58
2022-11-05T19:39:08.954Z,29.23
2022-11-05T19:42:10.510Z,28.57
2022-11-05T19:45:38.354Z,32.38
2022-11-05T19:48:33.755Z,28.92
2022-11-05T19:51:35.438Z,26.13
2022-11-05T19:54:37.479Z,27.85
2022-11-05T19:57:39.111Z,24.45
2022-11-05T20:00:40.636Z,24.65
2022-11-05T20:03:42.337Z,32.75
2022-11-05T20:06:44.476Z,43.20
2022-11-05T20:09:46.408Z,40.30
2022-11-05T20:12:47.949Z,39.10
2022-11-05T20:15:49.618Z,30.52
2022-11-05T20:18:51.740Z,27.60
2022-11-05T20:21:53.356Z,29.23
2022-11-05T20:24:54.874Z,30.73
2022-11-05T20:27:57.205Z,30.27
2022-11-05T20:30:59.323Z,30.75
2022-11-05T20:34:00.843Z,40.92
2022-11-05T20:37:02.547Z,27.95
2022-11-05T20:40:04.587Z,27.48
2022-11-05T20:43:06.382Z,24.53
2022-11-05T20:46:11.328Z,25.73
2022-11-05T20:49:13.410Z,34.90
2022-11-05T20:52:17.515Z,35.77
2022-11-05T20:55:19.437Z,32.55
2022-11-05T20:58:21.247Z,30.98
2022-11-05T21:01:23.193Z,29.63
2022-11-05T21:04:24.974Z,28.63
2022-11-05T21:07:26.779Z,26.35
2022-11-05T21:10:28.649Z,26.27
2022-11-05T21:13:30.544Z,25.63
2022-11-05T21:16:32.359Z,29.15
2022-11-05T21:19:56.660Z,26.83
2022-11-05T21:23:01.906Z,29.27
2022-11-05T21:26:08.482Z,27.67
2022-11-05T21:29:10.882Z,27.27
2022-11-05T21:32:12.779Z,27.58
2022-11-05T21:35:15.170Z,27.15
2022-11-05T21:38:18.260Z,30.70
2022-11-05T21:41:20.102Z,25.42
2022-11-05T21:44:21.846Z,30.03
2022-11-05T21:47:23.712Z,29.92
2022-11-05T21:50:45.508Z,27.33
2022-11-05T21:54:06.730Z,24.70
2022-11-05T21:57:33.210Z,23.98
2022-11-05T22:00:35.190Z,25.30
2022-11-05T22:03:36.903Z,25.10
2022-11-05T22:06:38.652Z,25.80
2022-11-05T22:09:40.668Z,24.42
2022-11-05T22:12:42.413Z,26.65
2022-11-05T22:15:53.920Z,25.57
2022-11-05T22:18:59.160Z,25.02
2022-11-05T22:22:01.390Z,24.92
2022-11-05T22:25:04.092Z,23.97
2022-11-05T22:28:05.966Z,22.20
2022-11-05T22:31:15.663Z,22.25
2022-11-05T22:34:17.600Z,21.70
2022-11-05T22:37:19.474Z,24.55
2022-11-05T22:40:24.027Z,23.98
2022-11-05T22:43:26.078Z,24.05
2022-11-05T22:46:28.005Z,25.70
2022-11-05T22:49:29.837Z,24.52
2022-11-05T22:52:32.838Z,25.67
2022-11-05T22:55:39.307Z,23.43
2022-11-05T22:58:41.357Z,25.33
2022-11-05T23:01:44.854Z,25.40
2022-11-05T23:04:46.931Z,23.70
2022-11-05T23:08:07.372Z,22.42
2022-11-05T23:11:41.098Z,23.65
2022-11-05T23:14:42.925Z,17.27
2022-11-05T23:18:03.203Z,18.63
2022-11-05T23:21:23.542Z,18.00
2022-11-05T23:24:25.335Z,19.85
2022-11-05T23:27:33.012Z,22.63
2022-11-05T23:30:34.814Z,23.13
2022-11-05T23:33:37.471Z,21.65
2022-11-05T23:36:57.905Z,21.83
2022-11-05T23:39:59.767Z,18.02
2022-11-05T23:43:20.091Z,18.95
2022-11-05T23:46:40.529Z,15.93
2022-11-05T23:49:42.268Z,18.57
2022-11-05T23:52:44.073Z,19.77
2022-11-05T23:55:45.780Z,25.15
2022-11-05T23:58:47.730Z,16.67
